createdAt,value
2023-04-22T00:03:31.529Z,3.25
2023-04-22T00:07:34.064Z,3.38
2023-04-22T00:11:36.189Z,4.03
2023-04-22T00:15:38.858Z,3.75
2023-04-22T00:19:41.784Z,3.67
2023-04-22T00:23:45.463Z,3.78
2023-04-22T00:27:47.605Z,3.70
2023-04-22T00:31:49.996Z,3.42
2023-04-22T00:35:54.659Z,3.22
2023-04-22T00:39:58.149Z,3.75
2023-04-22T00:44:00.976Z,3.10
2023-04-22T00:48:03.218Z,4.45
2023-04-22T00:52:05.415Z,3.45
2023-04-22T00:56:07.974Z,2.83
2023-04-22T01:00:10.547Z,3.92
2023-04-22T01:04:14.428Z,3.47
2023-04-22T01:08:17.466Z,3.05
2023-04-22T01:12:19.672Z,3.30
2023-04-22T01:16:22.301Z,3.10
2023-04-22T01:20:29.527Z,3.42
2023-04-22T01:24:34.196Z,3.58
2023-04-22T01:28:36.441Z,3.20
2023-04-22T01:32:40.480Z,3.42
2023-04-22T01:36:42.567Z,3.67
2023-04-22T01:40:44.585Z,4.78
2023-04-22T01:44:47.885Z,4.07
2023-04-22T01:48:52.763Z,4.40
2023-04-22T01:52:57.581Z,4.38
2023-04-22T01:57:01.079Z,4.18
2023-04-22T02:01:03.700Z,3.72
2023-04-22T02:05:07.923Z,4.32
2023-04-22T02:09:12.123Z,4.53
2023-04-22T02:13:14.508Z,4.35
2023-04-22T02:17:17.960Z,4.78
2023-04-22T02:21:21.543Z,3.95
2023-04-22T02:25:23.785Z,3.83
2023-04-22T02:29:25.992Z,3.95
2023-04-22T02:33:32.964Z,3.88
2023-04-22T02:37:35.047Z,3.85
2023-04-22T02:41:37.168Z,4.50
2023-04-22T02:45:40.966Z,4.68
2023-04-22T02:49:43.841Z,4.78
2023-04-22T02:53:45.953Z,4.90
2023-04-22T02:57:48.076Z,4.57
2023-04-22T03:01:50.353Z,4.13
2023-04-22T03:06:06.589Z,4.60
2023-04-22T03:10:09.412Z,4.68
2023-04-22T03:14:11.549Z,4.85
2023-04-22T03:18:14.210Z,5.15
2023-04-22T03:22:16.561Z,4.28
2023-04-22T03:26:19.008Z,5.00
2023-04-22T03:30:21.632Z,4.70
2023-04-22T03:34:23.774Z,4.88
2023-04-22T03:38:26.182Z,5.40
2023-04-22T03:42:28.600Z,3.97
2023-04-22T03:46:32.535Z,4.93
2023-04-22T03:50:43.865Z,4.75
2023-04-22T03:54:46.031Z,4.53
2023-04-22T03:58:48.554Z,5.93
2023-04-22T04:02:51.726Z,8.57
2023-04-22T04:06:58.937Z,24.42
2023-04-22T04:11:02.168Z,30.77
2023-04-22T04:15:05.575Z,14.23
2023-04-22T04:19:09.204Z,11.57
2023-04-22T04:23:13.022Z,9.32
2023-04-22T04:27:15.514Z,10.77
2023-04-22T04:31:25.109Z,11.20
2023-04-22T04:35:29.968Z,9.85
2023-04-22T04:39:33.149Z,12.38
2023-04-22T04:43:37.758Z,13.77
2023-04-22T04:47:53.036Z,15.05
2023-04-22T04:51:59.937Z,14.18
2023-04-22T04:56:04.020Z,8.60
2023-04-22T05:00:08.549Z,10.07
2023-04-22T05:04:11.700Z,7.70
2023-04-22T05:08:16.693Z,9.00
2023-04-22T05:12:21.881Z,7.40
2023-04-22T05:16:24.341Z,7.53
2023-04-22T05:20:26.513Z,6.55
2023-04-22T05:24:29.027Z,6.90
2023-04-22T05:28:34.323Z,6.78
2023-04-22T05:32:36.610Z,7.30
2023-04-22T05:36:39.048Z,7.25
2023-04-22T05:40:41.236Z,6.97
2023-04-22T05:44:45.832Z,7.70
2023-04-22T05:48:49.282Z,7.35
2023-04-22T05:53:11.267Z,7.47
2023-04-22T05:57:13.824Z,7.90
2023-04-22T06:01:16.126Z,7.80
2023-04-22T06:05:28.611Z,8.82
2023-04-22T06:09:33.061Z,8.05
2023-04-22T06:13:35.072Z,8.43
2023-04-22T06:17:37.676Z,10.07
2023-04-22T06:21:42.247Z,9.57
2023-04-22T06:25:44.448Z,10.37
2023-04-22T06:29:46.804Z,9.43
2023-04-22T06:33:49.252Z,8.95
2023-04-22T06:37:51.587Z,9.88
2023-04-22T06:41:53.880Z,9.82
2023-04-22T06:46:14.769Z,9.80
2023-04-22T06:50:55.449Z,9.18
2023-04-22T06:54:58.867Z,8.37
2023-04-22T06:59:01.030Z,8.50
2023-04-22T07:03:04.801Z,7.80
2023-04-22T07:07:07.310Z,7.22
2023-04-22T07:11:12.556Z,7.13
2023-04-22T07:15:36.680Z,6.60
2023-04-22T07:19:39.773Z,5.80
2023-04-22T07:23:42.144Z,4.97
2023-04-22T07:27:44.257Z,5.30
2023-04-22T07:31:46.576Z,5.25
2023-04-22T07:35:49.216Z,5.13
2023-04-22T07:39:51.313Z,4.10
2023-04-22T07:43:54.120Z,4.40
2023-04-22T07:47:56.429Z,4.28
2023-04-22T07:51:58.525Z,3.78
2023-04-22T07:56:02.242Z,4.47
2023-04-22T08:00:07.379Z,5.50
2023-04-22T08:04:15.363Z,4.03
2023-04-22T08:08:18.203Z,4.57
2023-04-22T08:12:20.360Z,4.60
2023-04-22T08:16:22.644Z,3.15
2023-04-22T08:20:25.843Z,5.03
2023-04-22T08:24:28.004Z,4.15
2023-04-22T08:28:30.197Z,3.28
2023-04-22T08:32:32.860Z,4.22
2023-04-22T08:36:35.032Z,4.72
2023-04-22T08:40:41.260Z,5.03
2023-04-22T08:44:43.594Z,5.25
2023-04-22T08:48:47.673Z,5.57
2023-04-22T08:52:49.864Z,3.60
2023-04-22T08:56:52.274Z,2.85
2023-04-22T09:00:55.481Z,3.35
2023-04-22T09:04:58.858Z,2.92
2023-04-22T09:09:01.810Z,3.03
2023-04-22T09:13:06.114Z,2.95
2023-04-22T09:17:08.313Z,3.05
2023-04-22T09:21:11.092Z,2.67
2023-04-22T09:25:21.770Z,2.22
2023-04-22T09:29:30.896Z,2.38
2023-04-22T09:33:33.905Z,2.75
2023-04-22T09:37:48.524Z,2.45
2023-04-22T09:41:56.702Z,2.33
2023-04-22T09:46:00.576Z,1.70
2023-04-22T09:50:04.879Z,2.10
2023-04-22T09:58:15.770Z,2.00
2023-04-22T10:02:18.189Z,1.80
2023-04-22T10:06:21.641Z,1.92
2023-04-22T10:10:24.566Z,1.45
2023-04-22T10:14:27.641Z,1.50
2023-04-22T10:18:31.161Z,1.20
2023-04-22T10:22:35.414Z,1.20
2023-04-22T10:26:50.852Z,1.20
2023-04-22T10:30:54.095Z,1.45
2023-04-22T10:35:12.454Z,1.30
2023-04-22T10:39:16.748Z,1.75
2023-04-22T10:43:20.038Z,1.35
2023-04-22T10:47:30.760Z,1.43
2023-04-22T10:51:44.051Z,1.20
2023-04-22T10:55:52.148Z,1.20
2023-04-22T10:59:59.056Z,1.63
2023-04-22T11:04:20.894Z,1.42
2023-04-22T11:08:28.592Z,1.10
2023-04-22T11:12:39.765Z,1.38
2023-04-22T11:16:47.421Z,1.35
2023-04-22T11:20:50.913Z,1.73
2023-04-22T11:25:01.374Z,1.20
2023-04-22T11:29:03.735Z,1.75
2023-04-22T11:33:06.426Z,1.75
2023-04-22T11:37:08.835Z,1.60
2023-04-22T11:41:21.320Z,1.77
2023-04-22T11:45:24.148Z,1.80
2023-04-22T11:49:41.413Z,1.70
2023-04-22T11:54:04.868Z,1.73
2023-04-22T11:58:09.858Z,1.63
2023-04-22T12:02:12.192Z,1.77
2023-04-22T12:06:16.643Z,1.55
2023-04-22T12:10:34.225Z,1.90
2023-04-22T12:15:18.830Z,1.85
2023-04-22T12:24:22.393Z,1.50
2023-04-22T12:28:24.713Z,1.40
2023-04-22T12:32:27.768Z,1.75
2023-04-22T12:36:32.747Z,2.00
2023-04-22T12:40:35.134Z,1.75
2023-04-22T12:44:37.592Z,1.60
2023-04-22T12:48:39.849Z,1.60
2023-04-22T12:52:44.590Z,1.52
2023-04-22T12:56:47.582Z,1.42
2023-04-22T13:00:49.876Z,1.80
2023-04-22T13:04:52.597Z,1.50
2023-04-22T13:09:04.923Z,1.40
2023-04-22T13:13:19.527Z,1.60
2023-04-22T13:17:23.344Z,1.50
2023-04-22T13:21:25.724Z,1.60
2023-04-22T13:25:28.201Z,1.40
2023-04-22T13:29:30.347Z,1.70
2023-04-22T13:34:00.271Z,1.38
2023-04-22T13:38:02.968Z,1.73
2023-04-22T13:42:05.513Z,1.43
2023-04-22T13:46:07.658Z,2.10
2023-04-22T13:50:10.847Z,1.50
2023-04-22T13:54:13.278Z,1.63
2023-04-22T13:58:15.466Z,2.05
2023-04-22T14:02:17.961Z,2.20
2023-04-22T14:06:20.851Z,1.65
2023-04-22T14:10:23.214Z,2.30
2023-04-22T14:14:25.805Z,1.90
2023-04-22T14:18:27.932Z,1.98
2023-04-22T14:22:30.130Z,1.50
2023-04-22T14:26:32.865Z,1.80
2023-04-22T14:30:35.137Z,1.90
2023-04-22T14:34:39.249Z,1.83
2023-04-22T14:38:41.619Z,2.30
2023-04-22T14:42:44.056Z,2.20
2023-04-22T14:46:46.227Z,1.98
2023-04-22T14:50:48.389Z,2.00
2023-04-22T14:54:51.931Z,1.67
2023-04-22T14:58:54.307Z,2.25
2023-04-22T15:02:57.245Z,1.85
2023-04-22T15:07:00.155Z,1.90
2023-04-22T15:11:02.292Z,1.93
2023-04-22T15:15:04.671Z,1.83
2023-04-22T15:19:06.987Z,1.70
2023-04-22T15:23:09.142Z,1.70
2023-04-22T15:27:11.523Z,2.08
2023-04-22T15:31:13.793Z,2.10
2023-04-22T15:35:16.104Z,1.92
2023-04-22T15:39:18.381Z,1.80
2023-04-22T15:43:20.764Z,2.20
2023-04-22T15:47:23.460Z,1.80
2023-04-22T15:51:26.426Z,1.80
2023-04-22T15:55:28.559Z,2.07
2023-04-22T15:59:30.670Z,2.20
2023-04-22T16:03:33.397Z,1.92
2023-04-22T16:07:35.773Z,2.17
2023-04-22T16:11:37.915Z,1.88
2023-04-22T16:15:40.131Z,2.28
2023-04-22T16:19:42.643Z,2.05
2023-04-22T16:23:45.601Z,1.80
2023-04-22T16:27:48.095Z,2.10
2023-04-22T16:31:50.428Z,1.70
2023-04-22T16:35:52.632Z,1.92
2023-04-22T16:39:54.910Z,2.00
2023-04-22T16:43:57.611Z,2.13
2023-04-22T16:47:59.791Z,1.67
2023-04-22T16:52:02.031Z,2.10
2023-04-22T16:56:04.489Z,2.00
2023-04-22T17:00:07.764Z,4.00
2023-04-22T17:04:11.362Z,3.08
2023-04-22T17:12:16.205Z,1.90
2023-04-22T17:16:18.975Z,2.20
2023-04-22T17:20:21.228Z,2.77
2023-04-22T17:24:24.993Z,2.72
2023-04-22T17:28:27.181Z,2.53
2023-04-22T17:32:29.425Z,2.30
2023-04-22T17:36:32.068Z,2.15
2023-04-22T17:40:34.290Z,2.38
2023-04-22T17:44:36.539Z,2.13
2023-04-22T17:48:38.700Z,1.98
2023-04-22T17:52:41.111Z,2.65
2023-04-22T17:56:43.325Z,2.75
2023-04-22T18:00:45.481Z,2.45
2023-04-22T18:04:48.074Z,2.83
2023-04-22T18:08:50.767Z,2.72
2023-04-22T18:12:53.241Z,2.90
2023-04-22T18:16:55.648Z,3.92
2023-04-22T18:20:58.212Z,2.88
2023-04-22T18:25:02.513Z,2.78
2023-04-22T18:33:08.383Z,2.97
2023-04-22T18:37:10.796Z,2.60
2023-04-22T18:41:16.532Z,2.75
2023-04-22T18:45:18.764Z,2.75
2023-04-22T18:49:21.365Z,2.88
2023-04-22T18:53:23.829Z,3.10
2023-04-22T18:57:25.938Z,3.15
2023-04-22T19:01:29.030Z,2.65
2023-04-22T19:05:31.468Z,2.72
2023-04-22T19:09:33.835Z,2.78
2023-04-22T19:13:35.929Z,2.42
2023-04-22T19:17:38.755Z,3.13
2023-04-22T19:21:41.185Z,2.90
2023-04-22T19:25:43.630Z,3.42
2023-04-22T19:29:51.329Z,3.08
2023-04-22T19:33:53.662Z,2.92
2023-04-22T19:37:55.828Z,3.95
2023-04-22T19:41:58.444Z,2.50
2023-04-22T19:46:00.690Z,3.53
2023-04-22T19:50:05.097Z,10.93
2023-04-22T19:54:11.201Z,3.60
2023-04-22T19:58:14.502Z,3.58
2023-04-22T20:02:16.879Z,2.95
2023-04-22T20:06:19.371Z,2.85
2023-04-22T20:10:22.900Z,1.70
2023-04-22T20:14:26.846Z,1.50
2023-04-22T20:18:29.413Z,1.45
2023-04-22T20:22:32.207Z,1.20
2023-04-22T20:26:34.475Z,1.30
2023-04-22T20:30:36.946Z,1.30
2023-04-22T20:34:39.441Z,1.40
2023-04-22T20:38:43.149Z,1.60
2023-04-22T20:42:45.622Z,2.03
2023-04-22T20:46:49.059Z,3.80
2023-04-22T20:50:51.174Z,4.70
2023-04-22T20:54:56.658Z,3.53
2023-04-22T20:58:59.085Z,2.28
2023-04-22T21:03:02.533Z,1.88
2023-04-22T21:07:07.637Z,2.30
2023-04-22T21:11:09.891Z,1.70
2023-04-22T21:15:12.529Z,1.70
2023-04-22T21:19:16.505Z,1.83
2023-04-22T21:23:20.071Z,1.58
2023-04-22T21:27:22.496Z,1.73
2023-04-22T21:31:25.325Z,2.00
2023-04-22T21:35:27.565Z,2.67
2023-04-22T21:39:29.956Z,1.88
2023-04-22T21:43:32.374Z,1.98
2023-04-22T21:47:34.622Z,1.80
2023-04-22T21:51:37.062Z,1.70
2023-04-22T21:55:39.840Z,2.00
2023-04-22T21:59:44.062Z,2.08
2023-04-22T22:03:46.484Z,1.77
2023-04-22T22:07:49.053Z,2.10
2023-04-22T22:11:51.379Z,1.60
2023-04-22T22:15:56.151Z,1.98
2023-04-22T22:19:58.294Z,1.73
2023-04-22T22:24:00.379Z,1.40
2023-04-22T22:28:02.541Z,2.08
2023-04-22T22:32:05.131Z,2.35
2023-04-22T22:36:08.611Z,2.25
2023-04-22T22:40:11.628Z,2.22
2023-04-22T22:44:13.872Z,2.53
2023-04-22T22:48:16.540Z,2.58
2023-04-22T22:52:18.630Z,3.17
2023-04-22T22:56:21.071Z,3.10
2023-04-22T23:00:23.044Z,3.03
2023-04-22T23:04:30.898Z,2.97
2023-04-22T23:08:35.409Z,2.63
2023-04-22T23:12:37.541Z,2.70
2023-04-22T23:16:39.922Z,3.08
2023-04-22T23:20:43.321Z,3.00
2023-04-22T23:24:46.227Z,3.40
2023-04-22T23:28:48.891Z,3.75
2023-04-22T23:32:52.027Z,3.50
2023-04-22T23:36:56.213Z,2.95
2023-04-22T23:40:58.189Z,3.58
2023-04-22T23:45:00.654Z,2.85
2023-04-22T23:49:03.080Z,2.50
2023-04-22T23:53:05.803Z,2.35
2023-04-22T23:57:08.231Z,2.50
